Time;durP1;ratioP1;P1;durP2;ratioP2;P2;SDS_P1;SDS_P2;PMS_P1;PMS_P2;Temp;Humidity;BMP_temperature;BMP_pressure;BME280_temperature;BME280_humidity;BME280_pressure;Samples;Min_cycle;Max_cycle;Signal;HPM_P1;HPM_P2
2023/12/07 00:00:41;;;;;;;3.97;1.80;;;1.70;99.90;;;;;;5016249;28;20055;-88
2023/12/07 00:03:06;;;;;;;0.63;0.63;;;1.70;99.90;;;;;;5033283;28;20075;-88
2023/12/07 00:05:33;;;;;;;1.00;0.88;;;1.70;99.90;;;;;;5017041;28;20041;-88
2023/12/07 00:07:58;;;;;;;1.02;0.93;;;1.70;99.90;;;;;;5034571;28;20089;-88
2023/12/07 00:10:24;;;;;;;0.73;0.73;;;1.70;99.90;;;;;;5034734;28;20086;-88
2023/12/07 00:12:50;;;;;;;0.77;0.77;;;1.70;99.90;;;;;;5034457;28;20056;-88
2023/12/07 00:15:15;;;;;;;1.48;1.38;;;1.70;99.90;;;;;;5032686;28;20041;-88
2023/12/07 00:17:41;;;;;;;0.35;0.35;;;1.70;99.90;;;;;;5034308;28;20530;-88
2023/12/07 00:20:07;;;;;;;0.10;0.10;;;1.70;99.90;;;;;;5032640;28;20041;-88
2023/12/07 00:22:33;;;;;;;0.40;0.40;;;1.70;99.90;;;;;;5034496;28;20124;-88
2023/12/07 00:24:58;;;;;;;0.00;0.00;;;1.70;99.90;;;;;;5032964;28;20053;-88
2023/12/07 00:27:24;;;;;;;0.10;0.10;;;1.70;99.90;;;;;;5034243;28;20502;-88
2023/12/07 00:29:50;;;;;;;0.43;0.43;;;1.60;99.90;;;;;;5033827;28;20041;-88
2023/12/07 00:32:15;;;;;;;0.50;0.50;;;1.60;99.90;;;;;;5033809;28;20048;-89
2023/12/07 00:34:41;;;;;;;0.22;0.22;;;1.70;99.90;;;;;;5033914;28;20044;-88
2023/12/07 00:37:07;;;;;;;0.10;0.10;;;1.60;99.90;;;;;;5032739;28;20545;-88
2023/12/07 00:39:33;;;;;;;0.20;0.20;;;1.60;99.90;;;;;;5033905;28;20069;-88
2023/12/07 00:41:58;;;;;;;0.80;0.47;;;1.60;99.90;;;;;;5032435;28;20084;-88
2023/12/07 00:44:24;;;;;;;0.32;0.32;;;1.60;99.90;;;;;;5032833;28;20103;-88
2023/12/07 00:46:50;;;;;;;0.10;0.10;;;1.60;99.90;;;;;;5033750;28;20048;-88
2023/12/07 00:49:16;;;;;;;0.90;0.90;;;1.60;99.90;;;;;;5033532;28;20088;-88
2023/12/07 00:51:41;;;;;;;0.63;0.63;;;1.70;99.90;;;;;;5032466;28;20073;-88
2023/12/07 00:54:07;;;;;;;0.50;0.50;;;1.60;99.90;;;;;;5033317;28;20403;-88
2023/12/07 00:56:33;;;;;;;2.07;1.80;;;1.60;99.90;;;;;;5038024;28;20038;-88
2023/12/07 00:58:58;;;;;;;0.85;0.85;;;1.70;99.90;;;;;;5036203;28;20450;-88
2023/12/07 01:01:24;;;;;;;0.20;0.20;;;1.60;99.90;;;;;;5036571;28;20073;-88
2023/12/07 01:03:49;;;;;;;0.25;0.25;;;1.60;99.90;;;;;;5036103;28;20080;-88
2023/12/07 01:06:16;;;;;;;0.25;0.22;;;1.60;99.90;;;;;;5019871;28;20168;-88
2023/12/07 01:08:43;;;;;;;0.60;0.60;;;1.60;99.90;;;;;;5036109;28;20052;-89
2023/12/07 01:11:08;;;;;;;18.10;1.10;;;1.60;99.90;;;;;;5035783;28;20053;-89
2023/12/07 01:13:36;;;;;;;0.17;0.17;;;1.60;99.90;;;;;;5035113;28;20037;-88
2023/12/07 01:16:01;;;;;;;0.32;0.32;;;1.60;99.90;;;;;;5035293;28;20146;-89
2023/12/07 01:18:27;;;;;;;0.10;0.10;;;1.60;99.90;;;;;;5035171;28;20509;-89
2023/12/07 01:20:52;;;;;;;0.57;0.57;;;1.60;99.90;;;;;;5035100;28;20047;-89
2023/12/07 01:23:18;;;;;;;0.20;0.20;;;1.60;99.90;;;;;;5034917;28;20510;-89
2023/12/07 01:25:43;;;;;;;0.98;0.90;;;1.60;99.90;;;;;;5035181;28;20045;-89
2023/12/07 01:28:09;;;;;;;0.65;0.65;;;1.60;99.90;;;;;;5034837;28;20041;-89
2023/12/07 01:30:36;;;;;;;1.08;0.98;;;1.60;99.90;;;;;;5034616;28;20072;-89
2023/12/07 01:33:01;;;;;;;0.25;0.25;;;1.60;99.90;;;;;;5034822;28;20057;-89
2023/12/07 01:35:28;;;;;;;0.00;0.00;;;1.60;99.90;;;;;;5034738;28;20099;-88
2023/12/07 01:37:54;;;;;;;0.20;0.20;;;1.60;99.90;;;;;;5034699;28;20073;-89
2023/12/07 01:40:19;;;;;;;0.20;0.20;;;1.60;99.90;;;;;;5034707;28;20080;-88
2023/12/07 01:42:54;;;;;;;0.10;0.10;;;1.60;99.90;;;;;;5034841;28;20498;-89
2023/12/07 01:45:20;;;;;;;0.73;0.55;;;1.60;99.90;;;;;;5034383;28;20487;-89
2023/12/07 01:47:47;;;;;;;0.22;0.22;;;1.60;99.90;;;;;;5034400;28;20117;-89
2023/12/07 01:50:16;;;;;;;0.67;0.67;;;1.60;99.90;;;;;;5034377;28;20502;-88
2023/12/07 01:52:48;;;;;;;0.43;0.35;;;1.70;99.90;;;;;;5034445;28;20107;-89
2023/12/07 01:55:14;;;;;;;0.10;0.10;;;1.70;99.90;;;;;;5034397;28;20049;-89
2023/12/07 01:57:41;;;;;;;0.20;0.20;;;1.70;99.90;;;;;;5034641;28;20034;-89
2023/12/07 02:00:09;;;;;;;1.15;1.10;;;1.70;99.90;;;;;;5034113;28;20042;-88
2023/12/07 02:02:35;;;;;;;0.10;0.10;;;1.70;99.90;;;;;;5034352;28;20529;-88
2023/12/07 02:05:01;;;;;;;0.00;0.00;;;1.70;99.90;;;;;;5033902;28;20491;-88
2023/12/07 02:07:27;;;;;;;0.17;0.17;;;1.70;99.90;;;;;;5033177;28;20045;-88
2023/12/07 02:09:53;;;;;;;0.45;0.45;;;1.70;99.90;;;;;;5034332;28;20072;-88
2023/12/07 02:12:19;;;;;;;0.32;0.32;;;1.70;99.90;;;;;;5034485;28;20069;-88
2023/12/07 02:14:45;;;;;;;0.65;0.65;;;1.70;99.90;;;;;;5034078;28;20132;-88
2023/12/07 02:17:26;;;;;;;0.00;0.00;;;1.70;99.90;;;;;;5034442;28;20049;-88
2023/12/07 02:19:59;;;;;;;0.03;0.03;;;1.60;99.90;;;;;;5034323;28;20104;-88
2023/12/07 02:22:36;;;;;;;0.20;0.20;;;1.70;99.90;;;;;;5034008;28;20503;-88
2023/12/07 02:25:08;;;;;;;0.20;0.20;;;1.70;99.90;;;;;;5033916;28;20087;-88
2023/12/07 02:27:48;;;;;;;0.20;0.20;;;1.70;99.90;;;;;;5034254;28;20045;-88
2023/12/07 02:30:14;;;;;;;0.03;0.03;;;1.60;99.90;;;;;;5034170;28;20053;-88
2023/12/07 02:32:43;;;;;;;0.28;0.28;;;1.60;99.90;;;;;;5033897;28;20037;-88
2023/12/07 02:35:14;;;;;;;0.52;0.52;;;1.60;99.90;;;;;;5033968;28;20048;-88
2023/12/07 02:37:46;;;;;;;0.60;0.52;;;1.60;99.90;;;;;;5035283;28;20068;-88
2023/12/07 02:40:14;;;;;;;1.33;0.50;;;1.60;99.90;;;;;;5033750;28;20056;-88
2023/12/07 02:42:42;;;;;;;1.17;0.73;;;1.60;99.90;;;;;;5035122;28;20045;-88
2023/12/07 02:45:09;;;;;;;0.00;0.00;;;1.60;99.90;;;;;;5033355;28;20471;-88
2023/12/07 02:47:35;;;;;;;0.00;0.00;;;1.60;99.90;;;;;;5033799;28;20042;-88
2023/12/07 02:50:02;;;;;;;0.47;0.47;;;1.60;99.90;;;;;;5033413;28;20080;-88
2023/12/07 02:52:28;;;;;;;0.13;0.13;;;1.60;99.90;;;;;;5033542;28;20049;-88
2023/12/07 02:54:54;;;;;;;0.63;0.63;;;1.60;99.90;;;;;;5033352;28;20033;-88
2023/12/07 02:57:19;;;;;;;0.67;0.67;;;1.60;99.90;;;;;;5035000;28;20087;-88
2023/12/07 02:59:45;;;;;;;0.30;0.30;;;1.50;99.90;;;;;;5033004;28;20483;-89
2023/12/07 03:02:11;;;;;;;0.10;0.10;;;1.50;99.90;;;;;;5033033;28;20069;-88
2023/12/07 03:04:36;;;;;;;0.17;0.17;;;1.50;99.90;;;;;;5016546;28;20136;-88
2023/12/07 03:07:02;;;;;;;0.00;0.00;;;1.50;99.90;;;;;;5034618;28;20453;-89
2023/12/07 03:09:28;;;;;;;1.02;0.55;;;1.50;99.90;;;;;;5033327;28;20045;-88
2023/12/07 03:11:53;;;;;;;0.70;0.70;;;1.40;99.90;;;;;;5035138;28;20034;-89
2023/12/07 03:14:19;;;;;;;0.00;0.00;;;1.40;99.90;;;;;;5035284;28;20099;-89
2023/12/07 03:16:45;;;;;;;0.22;0.20;;;1.40;99.90;;;;;;5036374;28;20121;-88
2023/12/07 03:19:11;;;;;;;1.48;1.15;;;1.40;99.90;;;;;;5035041;28;20041;-88
2023/12/07 03:21:42;;;;;;;0.20;0.20;;;1.40;99.90;;;;;;5033138;28;20088;-89
2023/12/07 03:24:08;;;;;;;4.63;0.97;;;1.40;99.90;;;;;;5032711;28;20041;-88
2023/12/07 03:26:34;;;;;;;1.10;0.70;;;1.40;99.90;;;;;;5033082;28;20048;-89
2023/12/07 03:29:00;;;;;;;0.27;0.27;;;1.40;99.90;;;;;;5032851;28;20045;-88
2023/12/07 03:31:26;;;;;;;0.60;0.60;;;1.40;99.90;;;;;;5033726;28;20077;-88
2023/12/07 03:33:52;;;;;;;0.47;0.47;;;1.40;99.90;;;;;;5032486;28;20064;-89
2023/12/07 03:36:18;;;;;;;0.52;0.47;;;1.40;99.90;;;;;;5033954;28;20442;-88
2023/12/07 03:38:43;;;;;;;0.50;0.50;;;1.40;99.90;;;;;;5016057;28;20041;-89
2023/12/07 03:41:09;;;;;;;0.10;0.10;;;1.40;99.90;;;;;;5032564;28;20525;-88
2023/12/07 03:43:34;;;;;;;0.80;0.77;;;1.40;99.90;;;;;;5032167;28;20052;-89
2023/12/07 03:46:04;;;;;;;0.77;0.73;;;1.40;99.90;;;;;;5032415;28;20148;-88
2023/12/07 03:48:29;;;;;;;0.68;0.68;;;1.80;99.90;;;;;;5032229;28;20071;-89
2023/12/07 03:50:55;;;;;;;0.98;0.43;;;1.40;99.90;;;;;;5015648;28;20041;-88
2023/12/07 03:53:20;;;;;;;0.10;0.10;;;1.40;99.90;;;;;;5032181;28;20053;-88
2023/12/07 03:55:46;;;;;;;0.30;0.28;;;1.40;99.90;;;;;;5032467;28;20042;-89
2023/12/07 03:58:13;;;;;;;3.50;2.10;;;1.50;99.90;;;;;;5032106;28;20041;-88
2023/12/07 04:00:39;;;;;;;3.30;0.67;;;1.50;99.90;;;;;;5031841;28;20049;-88
2023/12/07 04:03:04;;;;;;;0.20;0.20;;;1.50;99.90;;;;;;5031692;28;20111;-88
2023/12/07 04:05:30;;;;;;;0.68;0.68;;;1.50;99.90;;;;;;5031948;28;20048;-89
2023/12/07 04:07:55;;;;;;;1.08;1.00;;;1.50;99.90;;;;;;5032145;28;20049;-88
2023/12/07 04:10:21;;;;;;;0.15;0.15;;;1.40;99.90;;;;;;5032064;28;20095;-88
2023/12/07 04:12:47;;;;;;;0.32;0.32;;;1.30;99.90;;;;;;5032035;28;20041;-89
2023/12/07 04:15:12;;;;;;;0.45;0.45;;;1.30;99.90;;;;;;5031705;28;20523;-88
2023/12/07 04:17:38;;;;;;;0.15;0.15;;;1.20;99.90;;;;;;5032073;28;20109;-89
2023/12/07 04:20:04;;;;;;;0.57;0.30;;;1.20;99.90;;;;;;5033029;28;20045;-88
2023/12/07 04:22:31;;;;;;;0.63;0.63;;;1.20;99.90;;;;;;5031811;28;20057;-89
2023/12/07 04:24:56;;;;;;;0.30;0.30;;;1.10;99.90;;;;;;5031626;28;20037;-88
2023/12/07 04:27:22;;;;;;;0.47;0.47;;;1.00;99.90;;;;;;5032039;28;20049;-89
2023/12/07 04:29:47;;;;;;;0.50;0.50;;;1.00;99.90;;;;;;5031049;28;20068;-89
2023/12/07 04:32:13;;;;;;;0.10;0.10;;;0.90;99.90;;;;;;5032407;28;20082;-88
2023/12/07 04:34:38;;;;;;;0.00;0.00;;;0.90;99.90;;;;;;5033200;28;20050;-88
2023/12/07 04:37:04;;;;;;;0.03;0.03;;;0.90;99.90;;;;;;5033297;28;20038;-88
2023/12/07 04:39:30;;;;;;;1.85;1.60;;;0.80;99.90;;;;;;5015798;28;20042;-88
2023/12/07 04:41:55;;;;;;;0.97;0.97;;;0.80;99.90;;;;;;5031573;28;20037;-88
2023/12/07 04:44:21;;;;;;;0.30;0.30;;;0.70;99.90;;;;;;5031685;28;20055;-88
2023/12/07 04:46:47;;;;;;;0.22;0.22;;;0.70;99.90;;;;;;5033301;28;20124;-88
2023/12/07 04:49:12;;;;;;;0.70;0.70;;;0.70;99.90;;;;;;5032218;28;20045;-88
2023/12/07 04:51:38;;;;;;;5.07;1.20;;;0.60;99.90;;;;;;5033744;28;20041;-88
2023/12/07 04:54:03;;;;;;;1.13;0.40;;;0.60;99.90;;;;;;5034308;28;20495;-87
2023/12/07 04:56:29;;;;;;;0.20;0.20;;;1.80;99.90;;;;;;5032356;28;20042;-87
2023/12/07 04:58:54;;;;;;;0.57;0.43;;;0.60;99.90;;;;;;5015811;28;20530;-87
2023/12/07 05:01:20;;;;;;;0.17;0.17;;;0.60;99.90;;;;;;5031890;28;20045;-88
2023/12/07 05:03:46;;;;;;;1.67;1.57;;;0.60;99.90;;;;;;5031574;28;20049;-88
2023/12/07 05:06:11;;;;;;;1.30;1.20;;;0.50;99.90;;;;;;5031762;28;20056;-88
2023/12/07 05:08:39;;;;;;;0.35;0.35;;;0.50;99.90;;;;;;5031861;28;20046;-88
2023/12/07 05:11:04;;;;;;;1.03;0.93;;;0.50;99.90;;;;;;5032111;28;20069;-88
2023/12/07 05:13:30;;;;;;;1.13;1.02;;;0.40;99.90;;;;;;5031994;28;20522;-88
2023/12/07 05:15:56;;;;;;;0.30;0.30;;;0.50;99.90;;;;;;5031924;28;20060;-88
2023/12/07 05:18:21;;;;;;;0.77;0.77;;;0.50;99.90;;;;;;5031995;28;20118;-87
2023/12/07 05:20:47;;;;;;;0.10;0.10;;;0.60;99.90;;;;;;5032125;28;20572;-88
2023/12/07 05:23:12;;;;;;;1.37;1.27;;;0.70;99.90;;;;;;5031799;28;20052;-88
2023/12/07 05:25:38;;;;;;;0.57;0.57;;;0.70;99.90;;;;;;5031431;28;20045;-88
2023/12/07 05:28:04;;;;;;;0.15;0.15;;;0.70;99.90;;;;;;5031577;28;20395;-88
2023/12/07 05:30:30;;;;;;;0.90;0.90;;;0.70;99.90;;;;;;5031544;28;20069;-88
2023/12/07 05:32:55;;;;;;;0.10;0.10;;;0.60;99.90;;;;;;5031459;28;20497;-88
2023/12/07 05:35:21;;;;;;;3.10;0.68;;;0.60;99.90;;;;;;5031599;28;20049;-88
2023/12/07 05:37:46;;;;;;;0.00;0.00;;;0.60;99.90;;;;;;5031472;28;20041;-88
2023/12/07 05:40:12;;;;;;;0.80;0.53;;;0.70;99.90;;;;;;5015911;28;20041;-88
2023/12/07 05:42:38;;;;;;;1.13;0.65;;;0.70;99.90;;;;;;5035388;28;20053;-88
2023/12/07 05:45:06;;;;;;;1.20;1.10;;;0.70;99.90;;;;;;5034689;28;20419;-88
2023/12/07 05:47:32;;;;;;;1.65;0.95;;;0.70;99.90;;;;;;5035238;28;20104;-88
2023/12/07 05:49:59;;;;;;;0.25;0.25;;;0.70;99.90;;;;;;5034817;28;20487;-87
2023/12/07 05:52:25;;;;;;;1.17;1.13;;;0.60;99.90;;;;;;5036309;28;20380;-87
2023/12/07 05:54:51;;;;;;;0.30;0.30;;;0.60;99.90;;;;;;5034801;28;20128;-88
2023/12/07 05:57:16;;;;;;;0.30;0.30;;;0.50;99.90;;;;;;5034887;28;20045;-88
2023/12/07 05:59:43;;;;;;;0.35;0.35;;;0.50;99.90;;;;;;5034367;28;20048;-88
2023/12/07 06:02:09;;;;;;;5.53;1.00;;;0.50;99.90;;;;;;5034637;28;20087;-88
2023/12/07 06:04:34;;;;;;;0.30;0.30;;;0.50;99.90;;;;;;5034352;28;20103;-88
2023/12/07 06:07:00;;;;;;;0.13;0.13;;;0.50;99.90;;;;;;5034532;28;20041;-88
2023/12/07 06:09:25;;;;;;;1.40;1.30;;;0.50;99.90;;;;;;5034368;28;20679;-88
2023/12/07 06:11:51;;;;;;;0.10;0.10;;;0.40;99.90;;;;;;5034431;28;20536;-88
2023/12/07 06:14:17;;;;;;;0.83;0.83;;;0.40;99.90;;;;;;5033924;28;20442;-88
2023/12/07 06:16:42;;;;;;;2.08;1.13;;;0.30;99.90;;;;;;5034127;28;20053;-88
2023/12/07 06:19:08;;;;;;;0.63;0.63;;;0.30;99.90;;;;;;5034445;28;20067;-88
2023/12/07 06:21:33;;;;;;;0.40;0.40;;;0.20;99.90;;;;;;5034275;28;20053;-88
2023/12/07 06:23:59;;;;;;;0.33;0.27;;;0.10;99.90;;;;;;5033922;28;20040;-88
2023/12/07 06:26:25;;;;;;;2.47;0.43;;;0.10;99.90;;;;;;5017953;28;20479;-87
2023/12/07 06:28:51;;;;;;;0.00;0.00;;;0.10;99.90;;;;;;5034335;28;20072;-87
2023/12/07 06:31:19;;;;;;;0.20;0.20;;;0.10;99.90;;;;;;5034062;28;20463;-87
2023/12/07 06:33:45;;;;;;;2.77;0.70;;;0.10;99.90;;;;;;5033637;28;20037;-88
2023/12/07 06:36:11;;;;;;;0.10;0.10;;;0.10;99.90;;;;;;5033585;28;21349;-88
2023/12/07 06:38:38;;;;;;;0.00;0.00;;;0.10;99.90;;;;;;5033740;28;20099;-87
2023/12/07 06:41:04;;;;;;;0.70;0.70;;;0.10;99.90;;;;;;5033712;28;20041;-88
2023/12/07 06:43:29;;;;;;;0.20;0.20;;;0.10;99.90;;;;;;5040469;28;20082;-87
2023/12/07 06:45:55;;;;;;;0.40;0.40;;;0.20;99.90;;;;;;5033544;28;20041;-88
2023/12/07 06:48:21;;;;;;;2.70;2.03;;;0.20;99.90;;;;;;5033298;28;20509;-87
2023/12/07 06:50:47;;;;;;;0.65;0.65;;;0.20;99.90;;;;;;5033537;28;20041;-87
2023/12/07 06:53:14;;;;;;;0.20;0.20;;;0.20;99.90;;;;;;5034193;28;20479;-87
2023/12/07 06:55:41;;;;;;;0.57;0.57;;;0.30;99.90;;;;;;5034028;28;20380;-88
2023/12/07 06:58:06;;;;;;;0.57;0.57;;;0.30;99.90;;;;;;5017136;28;20446;-87
2023/12/07 07:00:32;;;;;;;0.20;0.20;;;0.30;99.90;;;;;;5033312;28;20037;-88
2023/12/07 07:02:58;;;;;;;0.63;0.57;;;0.30;99.90;;;;;;5033346;28;20380;-88
2023/12/07 07:05:24;;;;;;;0.77;0.77;;;0.30;99.90;;;;;;5033269;28;20113;-88
2023/12/07 07:07:51;;;;;;;0.87;0.70;;;0.30;99.90;;;;;;5034669;28;20045;-87
2023/12/07 07:10:18;;;;;;;1.80;0.83;;;0.30;99.90;;;;;;5033187;28;20099;-87
2023/12/07 07:12:44;;;;;;;5.07;1.77;;;0.30;99.90;;;;;;5032335;28;20053;-87
2023/12/07 07:15:09;;;;;;;0.77;0.77;;;0.20;99.90;;;;;;5015516;28;20044;-87
2023/12/07 07:17:35;;;;;;;1.50;1.37;;;0.20;99.90;;;;;;5032518;28;20080;-88
2023/12/07 07:20:01;;;;;;;0.50;0.50;;;0.30;99.90;;;;;;5030931;28;20088;-87
2023/12/07 07:22:26;;;;;;;0.17;0.17;;;0.20;99.90;;;;;;5031497;28;20053;-87
2023/12/07 07:24:52;;;;;;;0.30;0.30;;;0.30;99.90;;;;;;5031244;28;20046;-87
2023/12/07 07:27:17;;;;;;;0.77;0.77;;;0.30;99.90;;;;;;5031044;28;20105;-88
2023/12/07 07:29:44;;;;;;;1.02;1.00;;;0.40;99.90;;;;;;5031949;28;20408;-87
2023/12/07 07:32:10;;;;;;;0.70;0.70;;;0.40;99.90;;;;;;5031319;28;20064;-87
2023/12/07 07:34:37;;;;;;;0.27;0.27;;;0.40;99.90;;;;;;5030788;28;20037;-87
2023/12/07 07:37:03;;;;;;;7.17;2.80;;;0.40;99.90;;;;;;5030603;28;20042;-87
2023/12/07 07:39:29;;;;;;;1.27;0.97;;;0.50;99.90;;;;;;5030252;28;20045;-88
2023/12/07 07:41:54;;;;;;;0.73;0.73;;;0.50;99.90;;;;;;5031076;28;20053;-88
2023/12/07 07:44:20;;;;;;;0.50;0.50;;;0.60;99.90;;;;;;5030734;28;20033;-88
2023/12/07 07:46:46;;;;;;;1.02;0.98;;;0.50;99.90;;;;;;5030539;28;20045;-87
2023/12/07 07:49:11;;;;;;;0.33;0.33;;;0.60;99.90;;;;;;5031762;28;20407;-87
2023/12/07 07:51:38;;;;;;;1.23;1.13;;;0.60;99.90;;;;;;5031890;28;20037;-87
2023/12/07 07:54:04;;;;;;;0.40;0.40;;;0.60;99.90;;;;;;5031017;28;20041;-87
2023/12/07 07:56:30;;;;;;;0.40;0.40;;;0.60;99.90;;;;;;5029274;28;20407;-88
2023/12/07 07:58:55;;;;;;;0.43;0.43;;;0.60;99.90;;;;;;5030343;28;20040;-87
2023/12/07 08:01:21;;;;;;;0.40;0.40;;;0.60;99.90;;;;;;5030404;28;20061;-87
2023/12/07 08:03:47;;;;;;;1.85;1.55;;;0.70;99.90;;;;;;5043070;28;20058;-87
2023/12/07 08:06:12;;;;;;;1.40;1.30;;;0.60;99.90;;;;;;5047502;28;20140;-87
2023/12/07 08:08:38;;;;;;;0.55;0.55;;;0.60;99.90;;;;;;5030356;28;20045;-87
2023/12/07 08:11:05;;;;;;;1.23;1.13;;;0.60;99.90;;;;;;5030478;28;20041;-87
2023/12/07 08:13:30;;;;;;;1.42;1.33;;;0.50;99.90;;;;;;5029963;28;20128;-88
2023/12/07 08:15:56;;;;;;;0.43;0.43;;;1.70;99.90;;;;;;5031481;28;20129;-87
2023/12/07 08:18:22;;;;;;;1.70;1.08;;;0.50;99.90;;;;;;5013641;28;20049;-87
2023/12/07 08:20:48;;;;;;;0.20;0.20;;;0.50;99.90;;;;;;5030428;28;20092;-87
2023/12/07 08:23:13;;;;;;;1.13;0.95;;;0.50;99.90;;;;;;5030281;28;20480;-87
2023/12/07 08:25:40;;;;;;;0.63;0.63;;;0.60;99.90;;;;;;5030111;28;20654;-87
2023/12/07 08:28:05;;;;;;;0.40;0.40;;;0.60;99.90;;;;;;5030162;28;20119;-87
2023/12/07 08:30:31;;;;;;;0.45;0.40;;;0.60;99.90;;;;;;5031780;28;20045;-87
2023/12/07 08:32:56;;;;;;;1.73;1.63;;;0.70;99.90;;;;;;5029793;28;20037;-87
2023/12/07 08:35:23;;;;;;;1.83;1.73;;;0.70;99.90;;;;;;5029701;28;20037;-87
2023/12/07 08:37:48;;;;;;;0.60;0.60;;;0.80;99.90;;;;;;5031475;28;20128;-87
2023/12/07 08:40:15;;;;;;;0.40;0.40;;;0.80;99.90;;;;;;5012473;28;20125;-86
2023/12/07 08:42:45;;;;;;;0.70;0.70;;;0.80;99.90;;;;;;5030783;28;20046;-87
2023/12/07 08:45:11;;;;;;;1.20;1.10;;;0.80;99.90;;;;;;5030113;28;20045;-87
2023/12/07 08:47:36;;;;;;;1.33;1.23;;;0.80;99.90;;;;;;5030043;28;20573;-87
2023/12/07 08:50:02;;;;;;;0.90;0.90;;;0.70;99.90;;;;;;5013507;28;20056;-87
2023/12/07 08:52:27;;;;;;;0.57;0.57;;;0.70;99.90;;;;;;5029419;28;20128;-87
2023/12/07 08:54:54;;;;;;;3.23;1.87;;;0.60;99.90;;;;;;5029054;28;20057;-87
2023/12/07 08:57:19;;;;;;;3.53;3.20;;;0.60;99.90;;;;;;5030220;28;20084;-87
2023/12/07 08:59:45;;;;;;;2.20;1.60;;;0.50;99.90;;;;;;5029344;28;20042;-87
2023/12/07 09:02:11;;;;;;;0.60;0.60;;;0.50;99.90;;;;;;5029442;28;20037;-87
2023/12/07 09:04:39;;;;;;;0.80;0.80;;;0.50;99.90;;;;;;5029591;28;20045;-87
2023/12/07 09:07:05;;;;;;;0.73;0.73;;;0.40;99.90;;;;;;5029724;28;20045;-87
2023/12/07 09:09:31;;;;;;;3.03;2.73;;;0.40;99.90;;;;;;5029653;28;20124;-87
2023/12/07 09:11:57;;;;;;;1.33;1.23;;;0.40;99.90;;;;;;5029408;28;20121;-87
2023/12/07 09:14:22;;;;;;;1.37;1.27;;;0.40;99.90;;;;;;5027531;28;20052;-87
2023/12/07 09:16:48;;;;;;;4.47;2.20;;;0.30;99.90;;;;;;5033019;28;20045;-87
2023/12/07 09:19:13;;;;;;;2.07;1.93;;;0.30;99.90;;;;;;5033853;28;20450;-87
2023/12/07 09:21:42;;;;;;;5.30;3.80;;;0.30;99.90;;;;;;5033325;28;20044;-87
2023/12/07 09:24:08;;;;;;;3.40;1.93;;;0.30;99.90;;;;;;5033299;28;20037;-87
2023/12/07 09:26:33;;;;;;;0.87;0.87;;;0.30;99.90;;;;;;5033505;28;20487;-87
2023/12/07 09:28:59;;;;;;;0.10;0.10;;;0.30;99.90;;;;;;5032162;28;20041;-87
2023/12/07 09:31:25;;;;;;;0.88;0.88;;;0.40;99.90;;;;;;5033208;28;20037;-87
2023/12/07 09:33:53;;;;;;;0.55;0.55;;;0.40;99.90;;;;;;5032202;28;20411;-87
2023/12/07 09:36:21;;;;;;;0.67;0.67;;;0.50;99.90;;;;;;5033141;28;20103;-87
2023/12/07 09:38:46;;;;;;;0.50;0.50;;;0.60;99.90;;;;;;5032696;28;20067;-87
2023/12/07 09:41:12;;;;;;;2.80;2.60;;;0.60;99.90;;;;;;5033540;28;20753;-87
2023/12/07 09:43:38;;;;;;;1.60;1.30;;;0.70;99.90;;;;;;5032152;28;20483;-87
2023/12/07 09:46:05;;;;;;;0.10;0.10;;;0.70;99.90;;;;;;5031965;28;20053;-88
2023/12/07 09:48:31;;;;;;;1.70;1.60;;;0.80;99.90;;;;;;5033721;28;20456;-87
2023/12/07 09:50:59;;;;;;;1.07;0.97;;;0.80;99.90;;;;;;5015199;28;20049;-87
2023/12/07 09:53:25;;;;;;;2.43;2.00;;;0.90;99.90;;;;;;5032194;28;20061;-87
2023/12/07 09:55:50;;;;;;;0.40;0.40;;;0.90;99.90;;;;;;5032708;28;20061;-87
2023/12/07 09:58:16;;;;;;;1.23;1.13;;;0.90;99.90;;;;;;5033412;28;20056;-87
2023/12/07 10:00:42;;;;;;;0.73;0.73;;;1.00;99.90;;;;;;5032285;28;20045;-87
2023/12/07 10:03:19;;;;;;;4.07;1.70;;;1.00;99.90;;;;;;5032240;28;20053;-87
2023/12/07 10:05:58;;;;;;;0.45;0.45;;;1.10;99.90;;;;;;5015477;28;20510;-87
2023/12/07 10:08:32;;;;;;;1.08;1.08;;;1.10;99.90;;;;;;5033454;28;20050;-87
2023/12/07 10:11:08;;;;;;;0.80;0.80;;;1.20;99.90;;;;;;5034835;28;20395;-88
2023/12/07 10:13:35;;;;;;;2.13;1.63;;;1.30;99.90;;;;;;5034029;28;20052;-87
2023/12/07 10:16:15;;;;;;;1.63;1.47;;;1.40;99.90;;;;;;5035172;28;20160;-87
2023/12/07 10:18:41;;;;;;;0.13;0.13;;;1.50;99.90;;;;;;5034052;28;20052;-87
2023/12/07 10:21:09;;;;;;;0.88;0.80;;;1.50;99.90;;;;;;5035131;28;20388;-87
2023/12/07 10:23:36;;;;;;;0.65;0.65;;;1.50;99.90;;;;;;5033524;28;20143;-87
2023/12/07 10:26:02;;;;;;;0.80;0.80;;;0.60;99.90;;;;;;5033588;28;20051;-87
2023/12/07 10:28:27;;;;;;;0.73;0.73;;;1.60;99.90;;;;;;5033093;28;20053;-88
2023/12/07 10:30:53;;;;;;;0.87;0.87;;;1.60;99.90;;;;;;5034642;28;20038;-88
2023/12/07 10:33:22;;;;;;;1.27;1.17;;;1.70;99.90;;;;;;5033249;28;20038;-88
2023/12/07 10:35:50;;;;;;;1.27;1.17;;;1.80;99.90;;;;;;5033649;28;20042;-88
2023/12/07 10:38:17;;;;;;;1.35;1.25;;;1.80;99.90;;;;;;5034018;28;20391;-88
2023/12/07 10:40:43;;;;;;;0.93;0.90;;;1.90;99.90;;;;;;5033471;28;20121;-88
2023/12/07 10:43:09;;;;;;;2.25;2.05;;;2.00;99.90;;;;;;5034744;28;20543;-88
2023/12/07 10:45:36;;;;;;;0.85;0.85;;;2.00;99.90;;;;;;5016898;28;20037;-88
2023/12/07 10:48:08;;;;;;;0.85;0.85;;;2.10;99.90;;;;;;5033182;28;20041;-88
2023/12/07 10:50:41;;;;;;;1.23;1.13;;;2.20;99.90;;;;;;5033194;28;20038;-88
2023/12/07 10:53:40;;;;;;;2.10;1.33;;;2.20;99.90;;;;;;5033111;28;20041;-88
2023/12/07 10:56:10;;;;;;;1.70;1.60;;;2.20;99.90;;;;;;5027791;28;20061;-88
2023/12/07 10:58:37;;;;;;;1.60;1.50;;;2.30;99.90;;;;;;5033144;28;20049;-88
2023/12/07 11:01:05;;;;;;;1.73;1.30;;;2.40;99.90;;;;;;5032721;28;20049;-88
2023/12/07 11:03:31;;;;;;;0.20;0.20;;;2.30;99.90;;;;;;5032557;28;20057;-88
2023/12/07 11:05:57;;;;;;;1.83;1.05;;;2.30;99.90;;;;;;5032825;28;20057;-88
2023/12/07 11:08:35;;;;;;;1.48;1.38;;;2.40;99.90;;;;;;5032747;28;20042;-88
2023/12/07 11:11:39;;;;;;;1.35;1.25;;;2.40;99.90;;;;;;5032956;28;20064;-88
2023/12/07 11:14:06;;;;;;;3.30;2.17;;;2.40;99.90;;;;;;5017764;28;20093;-88
2023/12/07 11:16:36;;;;;;;0.93;0.93;;;2.40;99.90;;;;;;5033217;28;20041;-88
2023/12/07 11:19:04;;;;;;;1.55;1.42;;;2.50;99.90;;;;;;5032440;28;20056;-88
2023/12/07 11:21:30;;;;;;;1.30;1.17;;;2.50;99.90;;;;;;5033840;28;20054;-88
2023/12/07 11:23:59;;;;;;;0.70;0.70;;;2.40;99.90;;;;;;5032698;28;20098;-88
2023/12/07 11:26:25;;;;;;;1.55;1.38;;;2.40;99.90;;;;;;5032870;28;20041;-88
2023/12/07 11:28:51;;;;;;;1.55;1.45;;;2.30;99.90;;;;;;5032344;28;20403;-88
2023/12/07 11:31:17;;;;;;;0.60;0.60;;;2.30;99.90;;;;;;5032417;28;20557;-88
2023/12/07 11:33:43;;;;;;;1.42;1.33;;;2.20;99.90;;;;;;5032496;28;20064;-87
2023/12/07 11:36:10;;;;;;;1.75;1.65;;;2.10;99.70;;;;;;5033662;28;20041;-88
2023/12/07 11:38:37;;;;;;;0.20;0.20;;;2.10;93.40;;;;;;5032177;28;20037;-88
2023/12/07 11:41:02;;;;;;;0.93;0.93;;;2.20;87.00;;;;;;5033607;28;20043;-88
2023/12/07 11:43:40;;;;;;;3.37;2.67;;;2.30;1.00;;;;;;5032355;28;20053;-88
2023/12/07 11:46:07;;;;;;;0.45;0.45;;;2.30;1.00;;;;;;5033366;28;20045;-88
2023/12/07 11:48:32;;;;;;;0.77;0.77;;;2.40;99.90;;;;;;5032073;28;20044;-87
2023/12/07 11:51:08;;;;;;;0.30;0.30;;;2.30;1.00;;;;;;5032202;28;20359;-88
2023/12/07 11:53:35;;;;;;;;;;;2.40;99.90;;;;;;5016258;28;20556;-88
2023/12/07 11:56:06;;;;;;;0.15;0.15;;;2.30;99.90;;;;;;5031991;28;19960;-88
2023/12/07 11:58:33;;;;;;;1.27;0.80;;;2.30;99.90;;;;;;5033249;28;20041;-88
2023/12/07 12:01:00;;;;;;;0.70;0.70;;;2.30;99.90;;;;;;5032074;28;20486;-87
2023/12/07 12:03:27;;;;;;;1.02;0.95;;;2.30;99.90;;;;;;5033014;28;20471;-88
2023/12/07 12:05:52;;;;;;;0.30;0.30;;;2.30;99.90;;;;;;5031959;28;20053;-88
2023/12/07 12:08:19;;;;;;;2.92;1.75;;;2.40;99.90;;;;;;5031861;28;20388;-88
2023/12/07 12:10:45;;;;;;;0.15;0.15;;;2.40;99.90;;;;;;5032106;28;20459;-88
2023/12/07 12:13:12;;;;;;;1.60;1.50;;;2.10;1.00;;;;;;5032216;28;20049;-88
2023/12/07 12:15:41;;;;;;;2.37;1.23;;;2.20;99.90;;;;;;5032104;28;20037;-88
2023/12/07 12:18:08;;;;;;;0.40;0.40;;;2.20;72.80;;;;;;5031904;28;20502;-88
2023/12/07 12:20:33;;;;;;;1.58;1.48;;;2.10;99.90;;;;;;5032954;28;20037;-88
2023/12/07 12:23:00;;;;;;;1.43;1.13;;;2.10;99.90;;;;;;5031705;28;20107;-88
2023/12/07 12:25:30;;;;;;;0.37;0.37;;;2.20;1.00;;;;;;5031637;28;20041;-88
2023/12/07 12:28:03;;;;;;;0.53;0.40;;;2.00;99.90;;;;;;5031480;28;20103;-88
2023/12/07 12:30:30;;;;;;;0.83;0.63;;;2.00;99.90;;;;;;5031296;28;20038;-88
2023/12/07 12:32:56;;;;;;;0.63;0.63;;;2.00;99.90;;;;;;5033038;28;20060;-87
2023/12/07 12:35:22;;;;;;;0.30;0.30;;;2.10;19.10;;;;;;5015055;28;20495;-88
2023/12/07 12:37:48;;;;;;;2.25;2.05;;;2.10;99.90;;;;;;5031725;28;20404;-88
2023/12/07 12:40:18;;;;;;;4.03;2.07;;;1.90;99.90;;;;;;5031373;28;20100;-88
2023/12/07 12:42:51;;;;;;;4.55;1.55;;;2.00;99.90;;;;;;5015082;28;20042;-88
2023/12/07 12:45:18;;;;;;;0.70;0.70;;;1.90;99.90;;;;;;5031266;28;20480;-88
2023/12/07 12:47:45;;;;;;;0.57;0.50;;;1.80;99.90;;;;;;5031667;28;20120;-88
2023/12/07 12:50:12;;;;;;;1.20;1.17;;;1.70;68.20;;;;;;5015949;28;20049;-88
2023/12/07 12:52:40;;;;;;;0.15;0.15;;;1.80;1.00;;;;;;5035496;28;20084;-88
2023/12/07 12:55:10;;;;;;;0.97;0.97;;;1.80;99.90;;;;;;5035277;28;20049;-88